Time;durP1;ratioP1;P1;durP2;ratioP2;P2;SDS_P1;SDS_P2;PMS_P1;PMS_P2;Temp;Humidity;BMP_temperature;BMP_pressure;BME280_temperature;BME280_humidity;BME280_pressure;Samples;Min_cycle;Max_cycle;Signal;HPM_P1;HPM_P2
2022/05/11 00:00:19;;;;;;;20.38;9.82;;;12.50;99.90;;;;;;5119261;27;20054;-64
2022/05/11 00:02:45;;;;;;;20.40;10.05;;;12.50;99.90;;;;;;5107813;28;20040;-64
2022/05/11 00:05:12;;;;;;;16.30;9.48;;;12.50;99.90;;;;;;5118645;27;20118;-64
2022/05/11 00:07:38;;;;;;;20.27;9.30;;;12.50;99.90;;;;;;5129472;27;20480;-64
2022/05/11 00:10:12;;;;;;;22.35;10.88;;;12.50;99.90;;;;;;5091065;28;20063;-64
2022/05/11 00:12:40;;;;;;;21.63;10.20;;;12.60;99.90;;;;;;5112591;27;20399;-64
2022/05/11 00:15:06;;;;;;;16.27;9.77;;;12.60;99.90;;;;;;5127003;27;20055;-64
2022/05/11 00:17:32;;;;;;;19.48;9.77;;;12.60;99.90;;;;;;5128158;27;20444;-64
2022/05/11 00:19:57;;;;;;;19.02;9.20;;;12.60;99.90;;;;;;5127667;27;20495;-64
2022/05/11 00:22:23;;;;;;;17.80;10.18;;;12.60;99.90;;;;;;5128557;28;20043;-64
2022/05/11 00:24:49;;;;;;;19.38;9.65;;;12.60;99.90;;;;;;5129274;27;20101;-64
2022/05/11 00:27:14;;;;;;;20.17;10.68;;;12.70;99.90;;;;;;5108274;28;20046;-64
2022/05/11 00:29:40;;;;;;;17.27;9.82;;;12.70;99.90;;;;;;5109627;28;20039;-64
2022/05/11 00:32:06;;;;;;;20.33;10.63;;;12.70;99.90;;;;;;5111394;27;20047;-64
2022/05/11 00:34:32;;;;;;;17.00;10.15;;;12.70;99.90;;;;;;5133932;27;20074;-64
2022/05/11 00:36:59;;;;;;;22.20;10.55;;;12.70;99.90;;;;;;5098230;28;20040;-64
2022/05/11 00:39:25;;;;;;;20.50;10.55;;;12.70;99.90;;;;;;5113077;27;20237;-64
2022/05/11 00:41:53;;;;;;;20.13;10.18;;;12.80;99.90;;;;;;5111812;28;20047;-64
2022/05/11 00:44:18;;;;;;;18.80;9.98;;;12.80;99.90;;;;;;5112939;28;20083;-64
2022/05/11 00:47:01;;;;;;;19.65;10.77;;;12.80;99.90;;;;;;5108138;27;20078;-64
2022/05/11 00:49:39;;;;;;;22.10;10.50;;;12.80;99.90;;;;;;5112217;28;20051;-64
2022/05/11 00:52:15;;;;;;;22.05;10.23;;;12.80;99.90;;;;;;5111463;28;20075;-64
2022/05/11 00:54:48;;;;;;;18.70;10.48;;;12.80;99.90;;;;;;5112912;27;20396;-64
2022/05/11 00:57:28;;;;;;;21.35;10.45;;;12.80;99.90;;;;;;5113795;27;20131;-64
2022/05/11 00:59:54;;;;;;;17.98;9.90;;;12.90;99.90;;;;;;5110768;27;20508;-64
2022/05/11 01:02:22;;;;;;;18.92;10.65;;;12.80;99.90;;;;;;5114952;27;20046;-64
2022/05/11 01:04:50;;;;;;;17.38;9.50;;;12.80;99.90;;;;;;5129141;27;20050;-64
2022/05/11 01:07:15;;;;;;;18.92;10.05;;;12.80;99.90;;;;;;5125096;27;20411;-64
2022/05/11 01:09:41;;;;;;;17.23;10.07;;;12.80;99.90;;;;;;5111276;27;20346;-65
2022/05/11 01:12:12;;;;;;;14.98;9.20;;;12.90;99.90;;;;;;5111006;28;20062;-64
2022/05/11 01:14:41;;;;;;;16.13;9.32;;;12.90;99.90;;;;;;5113479;27;20647;-64
2022/05/11 01:17:07;;;;;;;18.75;9.45;;;12.90;99.90;;;;;;5127147;27;20047;-64
2022/05/11 01:19:38;;;;;;;17.25;9.65;;;12.90;99.90;;;;;;5132513;27;20047;-64
2022/05/11 01:22:19;;;;;;;15.82;9.82;;;12.90;99.90;;;;;;5125591;27;20043;-64
2022/05/11 01:24:48;;;;;;;14.98;9.05;;;12.90;99.90;;;;;;5130098;27;20089;-64
2022/05/11 01:27:34;;;;;;;19.27;9.18;;;13.00;99.90;;;;;;5100439;28;20069;-64
2022/05/11 01:30:05;;;;;;;17.55;9.52;;;12.90;99.90;;;;;;5127972;27;20411;-66
2022/05/11 01:32:31;;;;;;;14.93;8.82;;;12.90;99.90;;;;;;5116570;27;20048;-64
2022/05/11 01:35:26;;;;;;;16.00;9.38;;;12.90;99.90;;;;;;5101528;27;20065;-64
2022/05/11 01:38:17;;;;;;;18.08;8.50;;;12.90;99.90;;;;;;5112823;27;20373;-64
2022/05/11 01:40:43;;;;;;;16.95;9.25;;;12.90;99.90;;;;;;5122283;27;20503;-64
2022/05/11 01:43:14;;;;;;;19.27;9.30;;;12.90;99.90;;;;;;5129293;27;20470;-64
2022/05/11 01:45:40;;;;;;;;;;;12.90;99.90;;;;;;5126784;27;20079;-64
2022/05/11 01:48:05;;;;;;;18.17;9.32;;;12.80;99.90;;;;;;5093014;28;20376;-64
2022/05/11 01:50:31;;;;;;;16.38;8.95;;;12.80;99.90;;;;;;5111273;27;20531;-64
2022/05/11 01:52:57;;;;;;;17.45;9.60;;;12.80;99.90;;;;;;5121550;27;20058;-64
2022/05/11 01:55:23;;;;;;;15.55;8.40;;;12.80;99.90;;;;;;5113379;27;20043;-64
2022/05/11 01:57:50;;;;;;;16.45;8.88;;;12.80;99.90;;;;;;5125208;27;20078;-64
2022/05/11 02:00:17;;;;;;;14.95;8.85;;;12.80;99.90;;;;;;5109847;27;20055;-64
2022/05/11 02:02:42;;;;;;;18.08;9.20;;;12.80;99.90;;;;;;5114006;27;20480;-64
2022/05/11 02:07:53;;;;;;;15.15;8.35;;;12.80;99.90;;;;;;5126140;27;20068;-65
2022/05/11 02:10:24;;;;;;;19.42;9.00;;;12.80;99.90;;;;;;5094513;28;20423;-64
2022/05/11 02:12:50;;;;;;;14.68;8.27;;;12.80;99.90;;;;;;5127770;27;20051;-64
2022/05/11 02:15:18;;;;;;;16.52;8.43;;;12.80;99.90;;;;;;5093824;28;20131;-64
2022/05/11 02:17:45;;;;;;;13.93;8.45;;;12.80;99.90;;;;;;5113500;27;20732;-64
2022/05/11 02:20:13;;;;;;;16.70;8.10;;;12.80;99.90;;;;;;5117892;27;20051;-65
2022/05/11 02:22:40;;;;;;;14.73;7.53;;;12.80;99.90;;;;;;5129913;27;20778;-65
2022/05/11 02:25:07;;;;;;;14.85;8.27;;;12.80;99.90;;;;;;5122984;27;20031;-64
2022/05/11 02:27:33;;;;;;;14.00;8.18;;;12.80;99.90;;;;;;5121046;27;20044;-64
2022/05/11 02:30:00;;;;;;;13.02;8.20;;;12.80;99.90;;;;;;5092718;28;20052;-65
2022/05/11 02:32:26;;;;;;;15.45;7.75;;;12.90;99.90;;;;;;5111230;27;20081;-64
2022/05/11 02:37:37;;;;;;;12.65;7.95;;;12.80;99.90;;;;;;5129513;27;20408;-64
2022/05/11 02:40:05;;;;;;;13.80;7.97;;;12.80;99.90;;;;;;5130304;27;20054;-64
2022/05/11 02:42:31;;;;;;;15.00;8.27;;;12.80;99.90;;;;;;5122338;27;20031;-64
2022/05/11 02:44:57;;;;;;;14.05;7.72;;;12.80;99.90;;;;;;5129441;27;20055;-64
2022/05/11 02:47:23;;;;;;;16.42;7.72;;;12.80;99.90;;;;;;5129791;27;20039;-64
2022/05/11 02:49:48;;;;;;;12.48;7.68;;;12.90;99.90;;;;;;5110711;28;20128;-65
2022/05/11 02:52:15;;;;;;;14.85;7.55;;;12.80;99.90;;;;;;5125627;27;20134;-64
2022/05/11 02:54:41;;;;;;;15.38;7.72;;;12.80;99.90;;;;;;5121168;27;20042;-65
2022/05/11 02:57:07;;;;;;;17.75;8.38;;;12.80;99.90;;;;;;5111966;27;20496;-65
2022/05/11 02:59:33;;;;;;;14.00;7.22;;;12.80;99.90;;;;;;5110714;28;20044;-65
2022/05/11 03:01:59;;;;;;;14.32;8.07;;;12.80;99.90;;;;;;5109308;28;20046;-64
2022/05/11 03:04:27;;;;;;;13.35;8.20;;;12.70;99.90;;;;;;5129262;27;20075;-65
2022/05/11 03:06:53;;;;;;;19.58;8.30;;;12.70;99.90;;;;;;5128813;27;20372;-64
2022/05/11 03:09:18;;;;;;;15.52;8.25;;;12.70;99.90;;;;;;5109449;27;20407;-65
2022/05/11 03:11:45;;;;;;;13.70;7.53;;;12.80;99.90;;;;;;5126000;27;20303;-65
2022/05/11 03:14:12;;;;;;;12.52;6.97;;;12.70;99.90;;;;;;5127898;27;20047;-65
2022/05/11 03:16:38;;;;;;;14.50;8.20;;;12.70;99.90;;;;;;5129995;27;20047;-65
2022/05/11 03:19:05;;;;;;;16.33;7.88;;;12.70;99.90;;;;;;5111903;27;20051;-64
2022/05/11 03:21:31;;;;;;;16.52;7.60;;;12.70;99.90;;;;;;5122979;27;20046;-65
2022/05/11 03:23:57;;;;;;;12.55;7.55;;;12.70;99.90;;;;;;5116077;27;20067;-64
2022/05/11 03:26:23;;;;;;;15.25;7.68;;;12.70;99.90;;;;;;5127234;27;20046;-64
2022/05/11 03:28:49;;;;;;;17.35;7.47;;;12.70;99.90;;;;;;5124775;27;20058;-64
2022/05/11 03:31:15;;;;;;;15.43;7.30;;;12.70;99.90;;;;;;5128171;27;20100;-64
2022/05/11 03:36:26;;;;;;;15.10;7.60;;;12.70;99.90;;;;;;5116410;27;20086;-65
2022/05/11 03:38:51;;;;;;;13.45;6.65;;;12.70;99.90;;;;;;5098563;27;20047;-64
2022/05/11 03:41:18;;;;;;;12.23;6.78;;;12.70;99.90;;;;;;5116578;27;20054;-64
2022/05/11 03:43:44;;;;;;;16.27;7.25;;;12.70;99.90;;;;;;5118834;27;20037;-64
2022/05/11 03:46:10;;;;;;;13.20;6.70;;;12.70;99.90;;;;;;5123767;27;20416;-65
2022/05/11 03:48:37;;;;;;;14.45;7.40;;;12.70;99.90;;;;;;5120041;27;20042;-65
2022/05/11 03:51:04;;;;;;;11.55;6.75;;;13.00;99.90;;;;;;5113185;27;20055;-65
2022/05/11 03:53:30;;;;;;;13.32;6.22;;;12.70;99.90;;;;;;5113471;27;20581;-64
2022/05/11 03:55:56;;;;;;;16.40;7.60;;;12.70;99.90;;;;;;5117042;27;20031;-65
2022/05/11 03:58:22;;;;;;;15.00;6.68;;;12.70;99.90;;;;;;5114668;27;20496;-66
2022/05/11 04:00:48;;;;;;;14.32;6.75;;;12.70;99.90;;;;;;5115088;27;20046;-64
2022/05/11 04:03:14;;;;;;;12.05;6.82;;;12.60;99.90;;;;;;5113507;27;20040;-64
2022/05/11 04:05:39;;;;;;;12.60;6.55;;;12.70;99.90;;;;;;5116711;27;20134;-65
2022/05/11 04:08:05;;;;;;;12.18;5.97;;;12.70;99.90;;;;;;5114614;27;20035;-65
2022/05/11 04:10:34;;;;;;;16.08;6.82;;;12.70;99.90;;;;;;5115507;27;20120;-65
2022/05/11 04:13:00;;;;;;;12.63;6.20;;;12.70;99.90;;;;;;5115652;27;20047;-64
2022/05/11 04:15:26;;;;;;;15.20;6.57;;;12.70;99.90;;;;;;5119932;27;20071;-65
2022/05/11 04:17:52;;;;;;;14.50;6.38;;;12.70;99.90;;;;;;5098905;27;20639;-65
2022/05/11 04:20:19;;;;;;;14.82;6.57;;;12.70;99.90;;;;;;5116540;27;20035;-64
2022/05/11 04:22:45;;;;;;;12.93;6.15;;;12.70;99.90;;;;;;5112121;27;20039;-64
2022/05/11 04:25:15;;;;;;;10.70;5.88;;;12.70;99.90;;;;;;5113664;28;20085;-65
2022/05/11 04:27:42;;;;;;;10.43;6.15;;;12.70;99.90;;;;;;5118959;27;20039;-65
2022/05/11 04:30:08;;;;;;;15.48;6.70;;;12.70;99.90;;;;;;5114813;27;20079;-65
2022/05/11 04:32:34;;;;;;;13.57;6.65;;;12.80;99.90;;;;;;5116800;28;20444;-65
2022/05/11 04:34:59;;;;;;;14.18;6.43;;;12.80;99.90;;;;;;5124473;27;20126;-64
2022/05/11 04:37:25;;;;;;;15.90;6.63;;;12.80;99.90;;;;;;5114152;27;20114;-65
2022/05/11 04:39:51;;;;;;;13.05;6.30;;;12.90;99.90;;;;;;5118932;27;20424;-64
2022/05/11 04:42:17;;;;;;;13.68;6.18;;;12.90;99.90;;;;;;5096318;28;20047;-64
2022/05/11 04:44:43;;;;;;;13.30;6.05;;;12.90;99.90;;;;;;5118883;28;20121;-64
2022/05/11 04:47:11;;;;;;;14.05;6.55;;;12.90;99.90;;;;;;5122519;27;20039;-64
2022/05/11 04:49:38;;;;;;;13.45;6.15;;;12.90;99.90;;;;;;5112902;28;20437;-64
2022/05/11 04:52:07;;;;;;;15.00;6.13;;;12.90;99.90;;;;;;5113970;28;20100;-65
2022/05/11 04:54:41;;;;;;;13.55;6.28;;;13.00;99.90;;;;;;5115715;28;20118;-64
2022/05/11 04:57:08;;;;;;;15.25;5.90;;;13.00;99.90;;;;;;5115337;28;20060;-64
2022/05/11 04:59:34;;;;;;;13.70;6.03;;;13.00;99.90;;;;;;5120957;28;20061;-63
2022/05/11 05:02:01;;;;;;;18.38;6.95;;;13.00;99.90;;;;;;5117074;28;20476;-64
2022/05/11 05:04:28;;;;;;;12.45;5.65;;;13.00;99.90;;;;;;5103132;28;20062;-64
2022/05/11 05:06:54;;;;;;;17.30;6.30;;;13.00;99.90;;;;;;5118556;27;20054;-65
2022/05/11 05:09:20;;;;;;;15.38;5.88;;;13.10;99.90;;;;;;5118765;27;20032;-64
2022/05/11 05:11:46;;;;;;;17.42;5.40;;;13.20;99.90;;;;;;5115291;27;20043;-64
2022/05/11 05:14:12;;;;;;;14.38;5.47;;;13.10;99.90;;;;;;5114827;27;20576;-64
2022/05/11 05:16:39;;;;;;;12.25;5.38;;;13.20;99.90;;;;;;5101707;28;20043;-64
2022/05/11 05:19:05;;;;;;;14.45;5.47;;;13.20;99.90;;;;;;5119114;27;20468;-64
2022/05/11 05:21:32;;;;;;;16.02;6.20;;;13.20;99.90;;;;;;5121381;27;20047;-66
2022/05/11 05:23:58;;;;;;;16.23;5.55;;;13.20;99.90;;;;;;5121812;27;20097;-64
2022/05/11 05:26:24;;;;;;;16.42;6.13;;;13.30;99.90;;;;;;5121237;27;20158;-65
2022/05/11 05:31:35;;;;;;;12.93;5.03;;;13.40;99.90;;;;;;5118994;27;20043;-64
2022/05/11 05:34:01;;;;;;;14.63;5.35;;;13.40;99.90;;;;;;5119152;27;20047;-65
2022/05/11 05:36:28;;;;;;;15.95;5.35;;;13.40;99.90;;;;;;5116207;27;20043;-64
2022/05/11 05:38:55;;;;;;;14.93;4.93;;;13.40;99.90;;;;;;5111793;27;20052;-65
2022/05/11 05:41:21;;;;;;;12.90;5.30;;;13.40;99.90;;;;;;5085021;27;20036;-64
2022/05/11 05:43:47;;;;;;;16.98;5.53;;;13.50;99.90;;;;;;5116151;27;20365;-64
2022/05/11 05:46:16;;;;;;;13.20;5.53;;;13.50;99.90;;;;;;5112021;27;20051;-64
2022/05/11 05:48:42;;;;;;;15.63;5.90;;;13.60;99.90;;;;;;5121253;27;20572;-65
2022/05/11 05:51:09;;;;;;;12.52;5.15;;;13.60;99.90;;;;;;5111898;27;20055;-64
2022/05/11 05:53:35;;;;;;;15.57;5.20;;;13.70;99.90;;;;;;5110407;27;20047;-65
2022/05/11 05:56:01;;;;;;;12.93;5.10;;;13.70;99.90;;;;;;5097601;27;20039;-64
2022/05/11 05:58:27;;;;;;;15.75;5.05;;;13.80;99.90;;;;;;5110185;27;20094;-64
2022/05/11 06:00:53;;;;;;;11.70;4.90;;;13.80;99.90;;;;;;5118468;27;20051;-64
2022/05/11 06:03:28;;;;;;;13.43;5.32;;;13.90;99.90;;;;;;5119907;27;20039;-64
2022/05/11 06:05:54;;;;;;;23.55;6.28;;;13.90;99.90;;;;;;5112579;27;20055;-64
2022/05/11 06:08:21;;;;;;;12.38;5.03;;;14.00;99.90;;;;;;5094704;27;20430;-64
2022/05/11 06:10:48;;;;;;;15.13;5.10;;;14.00;99.90;;;;;;5117355;27;20047;-64
2022/05/11 06:13:16;;;;;;;15.30;5.32;;;14.00;99.90;;;;;;5120451;27;20496;-65
2022/05/11 06:15:42;;;;;;;16.17;5.78;;;14.10;99.90;;;;;;5120039;27;20039;-64
2022/05/11 06:18:10;;;;;;;11.88;4.60;;;14.30;99.90;;;;;;5120297;27;20046;-64
2022/05/11 06:20:36;;;;;;;13.13;4.80;;;14.40;99.90;;;;;;5119066;27;20430;-64
2022/05/11 06:23:03;;;;;;;11.80;4.78;;;14.50;99.90;;;;;;5114142;27;20424;-64
2022/05/11 06:25:31;;;;;;;13.88;5.15;;;14.70;99.90;;;;;;5116533;27;20220;-63
2022/05/11 06:27:58;;;;;;;13.68;4.80;;;14.90;99.90;;;;;;5113195;27;20035;-64
2022/05/11 06:30:25;;;;;;;17.20;5.38;;;15.10;99.90;;;;;;5113778;27;20103;-64
2022/05/11 06:32:51;;;;;;;15.35;5.72;;;15.20;99.90;;;;;;5119562;27;20381;-64
2022/05/11 06:35:17;;;;;;;12.82;4.90;;;15.50;99.90;;;;;;5120121;27;20051;-64
2022/05/11 06:37:46;;;;;;;16.92;5.07;;;15.50;99.90;;;;;;5119689;27;20051;-64
2022/05/11 06:40:13;;;;;;;14.10;5.65;;;15.50;99.90;;;;;;5119294;27;20043;-64
2022/05/11 06:42:39;;;;;;;15.35;5.50;;;15.50;99.90;;;;;;5116670;27;20027;-64
2022/05/11 06:45:06;;;;;;;13.50;4.90;;;15.40;99.90;;;;;;5114730;27;20042;-64
2022/05/11 06:47:33;;;;;;;15.30;4.93;;;15.40;99.90;;;;;;5115584;27;20415;-64
2022/05/11 06:49:59;;;;;;;14.05;5.10;;;15.30;99.90;;;;;;5117925;27;20050;-64
2022/05/11 06:52:25;;;;;;;18.75;6.07;;;15.20;99.90;;;;;;5111613;27;20046;-64
2022/05/11 07:00:22;;;;;;;11.80;4.80;;;15.20;99.90;;;;;;5113196;27;20067;-64
2022/05/11 07:02:48;;;;;;;14.50;4.97;;;15.20;99.90;;;;;;5110677;27;20043;-64
2022/05/11 07:05:13;;;;;;;16.15;4.97;;;15.30;99.90;;;;;;5112471;27;20043;-64
2022/05/11 07:07:39;;;;;;;12.73;4.65;;;15.40;99.90;;;;;;5119438;27;20043;-64
2022/05/11 07:10:06;;;;;;;14.02;4.55;;;15.50;99.90;;;;;;5119703;27;20447;-65
2022/05/11 07:12:35;;;;;;;17.35;5.00;;;15.60;99.90;;;;;;5122045;27;20035;-64
2022/05/11 07:15:05;;;;;;;15.88;4.68;;;15.70;99.90;;;;;;5110628;27;20055;-64
2022/05/11 07:17:38;;;;;;;17.38;4.85;;;15.80;99.90;;;;;;5122404;27;20050;-65
2022/05/11 07:20:11;;;;;;;16.65;5.05;;;15.80;99.90;;;;;;5104185;27;20535;-64
2022/05/11 07:22:40;;;;;;;16.83;4.20;;;15.90;99.90;;;;;;5122197;27;20051;-64
2022/05/11 07:25:11;;;;;;;15.95;4.55;;;16.00;99.90;;;;;;5112136;27;20118;-64
2022/05/11 07:27:37;;;;;;;13.77;4.03;;;16.00;99.90;;;;;;5117003;27;21388;-65
2022/05/11 07:30:05;;;;;;;17.70;4.63;;;16.10;99.90;;;;;;5117874;27;20126;-64
2022/05/11 07:32:31;;;;;;;17.33;3.90;;;16.20;99.90;;;;;;5117468;27;20095;-65
2022/05/11 07:34:57;;;;;;;13.10;3.75;;;16.30;99.90;;;;;;5117986;27;20046;-64
2022/05/11 07:37:22;;;;;;;19.30;3.80;;;16.40;99.90;;;;;;5121483;27;20047;-64
2022/05/11 07:39:48;;;;;;;16.90;3.80;;;16.50;99.90;;;;;;5099667;27;20050;-63
2022/05/11 07:42:14;;;;;;;16.25;3.63;;;16.90;99.90;;;;;;5118836;27;20584;-64
2022/05/11 07:44:40;;;;;;;13.63;3.45;;;17.10;99.90;;;;;;5115970;27;20122;-64
2022/05/11 07:47:06;;;;;;;16.88;3.60;;;17.20;99.90;;;;;;5118807;27;20038;-64
2022/05/11 07:49:32;;;;;;;14.20;4.03;;;17.20;99.90;;;;;;5120322;27;20158;-64
2022/05/11 07:51:58;;;;;;;14.10;2.92;;;17.30;99.90;;;;;;5115218;27;20551;-65
2022/05/11 07:54:23;;;;;;;17.38;3.35;;;17.40;99.90;;;;;;5110749;27;20115;-65
2022/05/11 07:59:56;;;;;;;14.75;3.60;;;17.80;99.90;;;;;;5111434;27;20039;-64
2022/05/11 08:02:42;;;;;;;19.05;3.58;;;17.70;99.90;;;;;;5110253;27;20040;-64
2022/05/11 08:05:13;;;;;;;16.20;3.83;;;17.70;99.90;;;;;;5106257;27;20717;-64
2022/05/11 08:07:43;;;;;;;15.02;3.33;;;17.70;99.90;;;;;;5107885;27;20525;-64
2022/05/11 08:10:15;;;;;;;14.82;3.65;;;17.70;99.90;;;;;;5105607;27;20052;-64
2022/05/11 08:12:41;;;;;;;11.25;2.92;;;17.70;99.90;;;;;;5109837;27;20643;-64
2022/05/11 08:15:07;;;;;;;19.42;3.50;;;17.70;99.90;;;;;;5111265;27;20039;-64
2022/05/11 08:17:34;;;;;;;14.60;3.50;;;17.80;99.90;;;;;;5117052;27;20091;-64
2022/05/11 08:20:01;;;;;;;16.58;3.90;;;18.10;99.90;;;;;;5114531;27;20496;-64
2022/05/11 08:22:28;;;;;;;14.45;3.47;;;18.40;99.90;;;;;;5108169;28;20039;-65
2022/05/11 08:24:56;;;;;;;13.88;3.10;;;18.50;99.90;;;;;;5114669;28;20050;-64
2022/05/11 08:27:28;;;;;;;15.45;3.25;;;18.60;99.90;;;;;;5106840;28;20047;-64
2022/05/11 08:35:25;;;;;;;15.32;3.65;;;18.70;99.90;;;;;;5112872;28;20232;-65
2022/05/11 08:37:51;;;;;;;18.98;3.13;;;18.80;99.90;;;;;;5118908;28;20126;-65
2022/05/11 08:40:47;;;;;;;17.35;3.50;;;18.80;99.90;;;;;;5115290;28;20046;-65
2022/05/11 08:43:15;;;;;;;15.13;3.08;;;19.00;99.90;;;;;;5099200;28;20530;-64
2022/05/11 08:45:57;;;;;;;13.68;3.15;;;19.10;99.90;;;;;;5120775;27;20412;-64
2022/05/11 08:49:02;;;;;;;14.27;2.95;;;19.00;99.90;;;;;;5118952;27;20046;-63
2022/05/11 08:51:53;;;;;;;19.88;4.07;;;18.80;99.90;;;;;;5117686;27;20082;-64
2022/05/11 08:54:44;;;;;;;17.45;3.92;;;18.70;99.90;;;;;;5105966;27;20619;-65
2022/05/11 08:57:18;;;;;;;14.48;3.80;;;18.70;99.90;;;;;;5114956;27;20047;-65
2022/05/11 08:59:45;;;;;;;18.05;3.17;;;18.80;99.90;;;;;;5114084;27;20054;-65
2022/05/11 09:02:31;;;;;;;15.63;3.00;;;18.80;99.90;;;;;;5114925;27;20047;-65
2022/05/11 09:04:59;;;;;;;14.30;2.80;;;18.80;99.90;;;;;;5117397;27;20054;-65
2022/05/11 09:07:27;;;;;;;15.18;2.85;;;18.80;99.90;;;;;;5116137;27;20039;-65
2022/05/11 09:09:54;;;;;;;16.95;3.10;;;18.70;99.90;;;;;;5118323;27;20184;-65
2022/05/11 09:12:20;;;;;;;18.50;3.58;;;18.60;99.90;;;;;;5116818;27;20039;-65
2022/05/11 09:14:56;;;;;;;11.35;3.10;;;18.60;99.90;;;;;;5113224;27;20510;-65
2022/05/11 09:17:34;;;;;;;15.50;3.25;;;18.70;99.90;;;;;;5107599;27;20499;-65
2022/05/11 09:20:05;;;;;;;12.73;3.90;;;19.10;99.90;;;;;;5104848;27;20047;-65
2022/05/11 09:22:34;;;;;;;19.52;3.28;;;19.70;99.90;;;;;;5114108;27;20027;-65
2022/05/11 09:25:04;;;;;;;17.60;3.15;;;19.80;99.90;;;;;;5121019;27;20108;-65
2022/05/11 09:27:36;;;;;;;14.52;3.22;;;19.70;99.90;;;;;;5126218;27;20043;-65
2022/05/11 09:30:40;;;;;;;14.35;3.58;;;19.70;99.90;;;;;;5118735;27;20392;-65
2022/05/11 09:33:22;;;;;;;15.70;2.83;;;20.10;99.90;;;;;;5073600;27;20544;-65
2022/05/11 09:35:48;;;;;;;13.65;2.85;;;20.40;99.90;;;;;;5122458;27;20110;-65
2022/05/11 09:38:17;;;;;;;11.32;2.40;;;20.30;99.90;;;;;;5125342;27;20082;-65
2022/05/11 09:41:07;;;;;;;12.23;2.65;;;20.10;99.90;;;;;;5125840;27;20047;-65
2022/05/11 09:43:46;;;;;;;12.35;3.10;;;20.10;99.90;;;;;;5115602;27;20039;-65
2022/05/11 09:46:29;;;;;;;14.63;2.55;;;20.20;99.90;;;;;;5127230;27;20069;-65
2022/05/11 09:49:15;;;;;;;10.45;2.85;;;20.00;99.90;;;;;;5124713;27;20506;-65
2022/05/11 09:51:49;;;;;;;13.98;2.63;;;19.90;99.90;;;;;;5118571;27;20054;-65
2022/05/11 09:54:17;;;;;;;10.35;2.10;;;20.00;99.90;;;;;;5107518;27;20055;-65
2022/05/11 09:56:52;;;;;;;10.40;2.45;;;19.90;99.90;;;;;;5117024;27;20044;-64
2022/05/11 09:59:22;;;;;;;12.95;2.45;;;19.70;99.90;;;;;;5106042;28;20051;-65
2022/05/11 10:01:59;;;;;;;11.18;2.33;;;19.70;99.90;;;;;;5110124;27;20105;-64
2022/05/11 10:04:36;;;;;;;10.30;1.98;;;20.00;99.90;;;;;;5121853;27;20093;-64
2022/05/11 10:07:07;;;;;;;17.15;2.80;;;20.20;99.90;;;;;;5103382;27;20897;-64
2022/05/11 10:09:41;;;;;;;10.30;2.22;;;20.10;99.90;;;;;;5122656;27;20051;-65
2022/05/11 10:12:15;;;;;;;14.40;2.58;;;20.20;99.90;;;;;;5108306;27;20420;-65
2022/05/11 10:23:24;;;;;;;10.60;2.45;;;20.30;99.90;;;;;;5122488;27;20050;-64
2022/05/11 10:26:01;;;;;;;11.40;2.28;;;20.50;99.90;;;;;;5117338;27;20392;-65
2022/05/11 10:28:57;;;;;;;10.10;2.60;;;20.80;99.90;;;;;;5112741;27;20044;-64
2022/05/11 10:31:36;;;;;;;12.27;2.83;;;21.20;99.90;;;;;;5098870;27;20468;-65
2022/05/11 10:34:35;;;;;;;11.55;2.20;;;21.50;99.90;;;;;;5110049;27;20044;-64
2022/05/11 10:37:16;;;;;;;15.93;2.47;;;21.80;99.90;;;;;;5118390;27;20403;-64
2022/05/11 10:39:41;;;;;;;8.27;2.08;;;21.80;99.90;;;;;;5115629;27;20064;-65
2022/05/11 10:42:32;;;;;;;14.35;2.55;;;22.00;99.90;;;;;;5119623;27;20062;-65
2022/05/11 10:45:18;;;;;;;10.52;2.15;;;22.20;99.90;;;;;;5116205;27;20036;-65
2022/05/11 10:48:08;;;;;;;10.00;2.03;;;22.50;99.90;;;;;;5112115;27;20129;-64
2022/05/11 10:51:11;;;;;;;13.15;2.50;;;22.30;98.80;;;;;;5121335;27;20058;-65
2022/05/11 10:53:43;;;;;;;12.63;2.55;;;22.20;99.90;;;;;;5111228;27;20133;-65
2022/05/11 10:56:33;;;;;;;10.38;2.28;;;22.30;98.50;;;;;;5115451;27;20047;-65
2022/05/11 10:59:36;;;;;;;12.65;3.13;;;22.40;99.90;;;;;;5118002;27;20055;-64
2022/05/11 11:02:14;;;;;;;10.82;2.30;;;22.20;99.90;;;;;;5116835;27;20466;-65
2022/05/11 11:05:10;;;;;;;15.55;2.83;;;22.00;99.90;;;;;;5116124;27;20435;-65
2022/05/11 11:08:23;;;;;;;13.50;2.83;;;21.80;99.90;;;;;;5122051;27;20089;-65
2022/05/11 11:11:09;;;;;;;12.43;2.65;;;21.50;99.90;;;;;;5111136;27;20055;-65
2022/05/11 11:13:48;;;;;;;11.15;2.60;;;21.40;99.90;;;;;;5124479;27;20474;-65
2022/05/11 11:16:15;;;;;;;14.57;3.38;;;21.60;99.90;;;;;;5120220;27;20150;-64
2022/05/11 11:18:45;;;;;;;20.00;3.22;;;21.60;99.90;;;;;;5114535;27;20043;-65
2022/05/11 11:21:13;;;;;;;11.70;2.33;;;21.30;99.90;;;;;;5113648;27;20102;-65
2022/05/11 11:23:42;;;;;;;8.60;2.78;;;21.10;99.90;;;;;;5112951;27;20381;-66
2022/05/11 11:26:29;;;;;;;10.43;2.05;;;21.10;99.90;;;;;;5116195;27;20110;-65
2022/05/11 11:28:55;;;;;;;11.50;2.53;;;21.10;99.90;;;;;;5113090;27;20054;-65
2022/05/11 11:31:23;;;;;;;11.60;2.67;;;21.00;99.90;;;;;;5119102;27;20043;-65
2022/05/11 11:34:04;;;;;;;10.23;2.50;;;20.80;99.90;;;;;;5116794;27;20050;-65
2022/05/11 11:36:36;;;;;;;16.38;3.25;;;20.80;99.90;;;;;;5112209;27;20063;-65
2022/05/11 11:39:09;;;;;;;12.40;2.70;;;20.80;99.90;;;;;;5117307;27;20087;-68
2022/05/11 11:41:41;;;;;;;11.85;2.30;;;20.80;99.90;;;;;;5133826;27;20039;-66
2022/05/11 11:44:32;;;;;;;14.10;2.90;;;20.80;99.90;;;;;;5115388;27;20414;-65
2022/05/11 11:46:59;;;;;;;;;;;20.60;99.90;;;;;;5117207;27;20530;-65
2022/05/11 11:49:27;;;;;;;13.23;2.83;;;20.40;99.90;;;;;;5120408;27;19958;-65
2022/05/11 11:52:06;;;;;;;11.35;2.95;;;20.30;99.90;;;;;;5112799;27;20078;-65
2022/05/11 11:54:37;;;;;;;10.18;2.35;;;20.40;99.90;;;;;;5116904;27;20039;-65
2022/05/11 11:57:24;;;;;;;13.20;2.80;;;20.60;99.90;;;;;;5118011;27;20087;-65
2022/05/11 11:59:53;;;;;;;14.68;2.40;;;20.70;99.90;;;;;;5122155;27;20067;-66
2022/05/11 12:02:41;;;;;;;10.13;1.92;;;21.00;99.90;;;;;;5117747;27;20036;-66
2022/05/11 12:05:12;;;;;;;10.07;2.45;;;21.30;99.90;;;;;;5118849;27;20043;-65
2022/05/11 12:16:13;;;;;;;7.28;1.50;;;20.50;97.30;;;;;;5108906;27;20047;-65
2022/05/11 12:18:41;;;;;;;6.88;1.30;;;20.60;99.30;;;;;;5086164;28;20283;-65
2022/05/11 12:21:30;;;;;;;7.60;1.30;;;20.60;96.30;;;;;;5120822;27;20100;-65
2022/05/11 12:23:59;;;;;;;5.70;1.60;;;20.70;98.80;;;;;;5116128;27;20379;-66
2022/05/11 12:26:28;;;;;;;9.93;1.70;;;20.90;99.90;;;;;;5109290;27;20853;-66
2022/05/11 12:29:54;;;;;;;8.60;1.70;;;21.30;99.90;;;;;;5107362;28;20310;-66
2022/05/11 12:31:54;;;;;;;8.70;1.60;;;21.60;99.90;;;;;;5105607;28;20126;-66
2022/05/11 12:34:25;;;;;;;7.50;1.30;;;22.00;99.40;;;;;;5110031;27;20051;-65
2022/05/11 12:36:53;;;;;;;8.82;2.05;;;21.80;94.50;;;;;;5108762;28;20044;-65
2022/05/11 12:39:38;;;;;;;6.75;1.30;;;21.70;93.50;;;;;;5112434;28;20045;-65
2022/05/11 12:42:05;;;;;;;11.70;2.00;;;21.60;93.20;;;;;;5111231;28;20445;-66
2022/05/11 12:44:36;;;;;;;8.55;1.52;;;21.40;93.10;;;;;;5109149;28;20569;-66
2022/05/11 12:47:05;;;;;;;9.15;1.70;;;21.30;95.40;;;;;;5111142;27;20402;-66
2022/05/11 12:49:30;;;;;;;4.85;0.90;;;21.40;93.20;;;;;;5109927;28;20039;-65
2022/05/11 12:52:02;;;;;;;5.25;0.95;;;21.40;84.50;;;;;;5110868;27;20100;-65
2022/05/11 12:54:31;;;;;;;7.18;0.90;;;21.50;88.10;;;;;;5114298;28;20051;-66
2022/05/11 12:57:13;;;;;;;7.28;1.10;;;21.40;83.80;;;;;;5110371;28;20052;-66
2022/05/11 12:59:49;;;;;;;7.10;1.45;;;21.50;85.30;;;;;;5117137;27;20070;-64
2022/05/11 13:02:26;;;;;;;9.23;1.63;;;21.60;86.00;;;;;;5113870;27;20036;-65
2022/05/11 13:04:53;;;;;;;6.53;1.02;;;21.60;88.10;;;;;;5119182;28;20043;-65
2022/05/11 13:07:41;;;;;;;6.53;1.30;;;21.60;89.60;;;;;;5114997;27;20043;-65
2022/05/11 13:10:13;;;;;;;9.95;1.95;;;21.70;90.40;;;;;;5118788;28;20044;-65
2022/05/11 13:12:40;;;;;;;15.05;2.53;;;21.60;90.90;;;;;;5122875;27;20648;-65
2022/05/11 13:15:06;;;;;;;10.25;2.03;;;21.50;90.20;;;;;;5108733;28;20090;-65
2022/05/11 13:17:47;;;;;;;12.75;2.53;;;21.10;90.70;;;;;;5121698;28;20103;-65
2022/05/11 13:20:23;;;;;;;13.07;2.30;;;21.00;93.00;;;;;;5113293;27;20046;-65
2022/05/11 13:22:56;;;;;;;9.07;2.03;;;20.80;94.10;;;;;;5114452;27;20044;-65
2022/05/11 13:25:45;;;;;;;13.10;2.10;;;20.60;95.30;;;;;;5117265;27;20054;-65
2022/05/11 13:28:22;;;;;;;13.88;2.22;;;20.40;97.00;;;;;;5117604;28;20103;-65
2022/05/11 13:30:50;;;;;;;13.23;2.42;;;20.40;98.90;;;;;;5121844;27;20047;-64
2022/05/11 13:33:27;;;;;;;15.30;2.78;;;20.50;99.60;;;;;;5113455;28;20500;-65
2022/05/11 13:36:12;;;;;;;15.60;2.70;;;20.60;99.90;;;;;;5111014;28;20233;-64
2022/05/11 13:39:07;;;;;;;14.35;2.53;;;20.40;99.70;;;;;;5109774;27;20047;-65